createdAt,value
2018-12-16T00:01:02.572Z,100.00
2018-12-16T00:03:40.002Z,100.00
2018-12-16T00:06:19.203Z,100.00
2018-12-16T00:08:56.008Z,100.00
2018-12-16T00:11:33.024Z,100.00
2018-12-16T00:14:10.286Z,100.00
2018-12-16T00:16:46.758Z,100.00
2018-12-16T00:19:25.717Z,100.00
2018-12-16T00:22:02.968Z,100.00
2018-12-16T00:24:43.229Z,100.00
2018-12-16T00:27:21.127Z,100.00
2018-12-16T00:30:04.949Z,100.00
2018-12-16T00:32:41.655Z,100.00
2018-12-16T00:35:19.520Z,100.00
2018-12-16T00:37:57.761Z,100.00
2018-12-16T00:40:37.647Z,100.00
2018-12-16T00:43:15.822Z,100.00
2018-12-16T00:45:52.665Z,100.00
2018-12-16T00:48:29.427Z,100.00
2018-12-16T00:51:06.664Z,100.00
2018-12-16T00:53:46.378Z,100.00
2018-12-16T00:56:23.858Z,100.00
2018-12-16T00:59:01.226Z,100.00
2018-12-16T01:01:38.466Z,100.00
2018-12-16T01:04:15.530Z,100.00
2018-12-16T01:06:53.822Z,100.00
2018-12-16T01:09:32.869Z,100.00
2018-12-16T01:12:11.377Z,100.00
2018-12-16T01:14:49.776Z,100.00
2018-12-16T01:17:30.219Z,100.00
2018-12-16T01:20:09.481Z,100.00
2018-12-16T01:22:48.553Z,100.00
2018-12-16T01:25:29.187Z,100.00
2018-12-16T01:28:06.475Z,100.00
2018-12-16T01:30:44.379Z,100.00
2018-12-16T01:33:21.053Z,100.00
2018-12-16T01:35:59.222Z,100.00
2018-12-16T01:38:44.488Z,100.00
2018-12-16T01:41:21.362Z,100.00
2018-12-16T01:43:58.748Z,100.00
2018-12-16T01:46:35.799Z,100.00
2018-12-16T01:49:13.439Z,100.00
2018-12-16T01:51:51.140Z,100.00
2018-12-16T01:54:29.412Z,100.00
2018-12-16T01:57:08.494Z,100.00
2018-12-16T01:59:45.073Z,100.00
2018-12-16T02:02:22.387Z,100.00
2018-12-16T02:04:59.978Z,100.00
2018-12-16T02:07:37.052Z,100.00
2018-12-16T02:10:15.228Z,100.00
2018-12-16T02:12:53.471Z,100.00
2018-12-16T02:15:30.990Z,100.00
2018-12-16T02:18:08.535Z,100.00
2018-12-16T02:20:45.729Z,100.00
2018-12-16T02:23:23.216Z,100.00
2018-12-16T02:25:59.582Z,100.00
2018-12-16T02:28:36.779Z,100.00
2018-12-16T02:31:15.603Z,100.00
2018-12-16T02:33:56.714Z,100.00
2018-12-16T02:36:33.739Z,100.00
2018-12-16T02:39:10.379Z,100.00
2018-12-16T02:41:48.666Z,100.00
2018-12-16T02:44:28.148Z,100.00
2018-12-16T02:47:06.190Z,100.00
2018-12-16T02:49:42.787Z,100.00
2018-12-16T02:52:19.951Z,100.00
2018-12-16T02:54:56.983Z,100.00
2018-12-16T02:57:33.912Z,100.00
2018-12-16T03:00:14.276Z,100.00
2018-12-16T03:02:53.642Z,100.00
2018-12-16T03:05:33.376Z,100.00
2018-12-16T03:08:12.392Z,100.00
2018-12-16T03:10:53.407Z,100.00
2018-12-16T03:13:32.676Z,100.00
2018-12-16T03:16:09.878Z,100.00
2018-12-16T03:18:46.458Z,100.00
2018-12-16T03:21:23.139Z,100.00
2018-12-16T03:24:03.820Z,100.00
2018-12-16T03:26:44.722Z,100.00
2018-12-16T03:29:29.118Z,100.00
2018-12-16T03:32:07.778Z,100.00
2018-12-16T03:34:45.842Z,100.00
2018-12-16T03:37:23.710Z,100.00
2018-12-16T03:40:00.492Z,100.00
2018-12-16T03:42:41.093Z,100.00
2018-12-16T03:45:19.026Z,100.00
2018-12-16T03:47:57.725Z,100.00
2018-12-16T03:50:34.739Z,100.00
2018-12-16T03:53:11.244Z,100.00
2018-12-16T03:55:49.522Z,100.00
2018-12-16T03:58:27.846Z,100.00
2018-12-16T04:04:12.487Z,100.00
2018-12-16T04:06:50.717Z,100.00
2018-12-16T04:09:30.690Z,100.00
2018-12-16T04:12:08.052Z,100.00
2018-12-16T04:14:45.692Z,100.00
2018-12-16T04:17:23.614Z,100.00
2018-12-16T04:20:03.079Z,100.00
2018-12-16T04:22:40.048Z,100.00
2018-12-16T04:25:17.428Z,100.00
2018-12-16T04:27:54.481Z,100.00
2018-12-16T04:30:32.341Z,100.00
2018-12-16T04:33:13.944Z,100.00
2018-12-16T04:35:51.228Z,100.00
2018-12-16T04:38:28.375Z,100.00
2018-12-16T04:41:05.451Z,100.00
2018-12-16T04:43:44.070Z,100.00
2018-12-16T04:46:20.982Z,100.00
2018-12-16T04:48:58.026Z,100.00
2018-12-16T04:51:36.443Z,100.00
2018-12-16T04:54:14.058Z,100.00
2018-12-16T04:56:50.996Z,100.00
2018-12-16T04:59:28.440Z,100.00
2018-12-16T05:02:08.994Z,100.00
2018-12-16T05:04:46.755Z,100.00
2018-12-16T05:07:24.088Z,100.00
2018-12-16T05:10:11.214Z,100.00
2018-12-16T05:12:47.944Z,100.00
2018-12-16T05:15:25.681Z,100.00
2018-12-16T05:18:03.180Z,100.00
2018-12-16T05:20:44.093Z,100.00
2018-12-16T05:23:22.075Z,100.00
2018-12-16T05:25:58.736Z,100.00
2018-12-16T05:28:35.953Z,100.00
2018-12-16T05:31:13.237Z,100.00
2018-12-16T05:33:51.388Z,100.00
2018-12-16T05:36:28.091Z,100.00
2018-12-16T05:39:06.448Z,100.00
2018-12-16T05:41:45.093Z,100.00
2018-12-16T05:44:22.431Z,100.00
2018-12-16T05:47:02.360Z,100.00
2018-12-16T05:49:40.695Z,100.00
2018-12-16T05:52:18.970Z,100.00
2018-12-16T05:54:59.219Z,100.00
2018-12-16T05:57:36.797Z,100.00
2018-12-16T06:00:16.274Z,100.00
2018-12-16T06:02:54.446Z,100.00
2018-12-16T06:05:31.192Z,100.00
2018-12-16T06:08:07.865Z,100.00
2018-12-16T06:10:46.071Z,100.00
2018-12-16T06:13:22.456Z,100.00
2018-12-16T06:15:59.206Z,100.00
2018-12-16T06:18:35.928Z,100.00
2018-12-16T06:21:12.641Z,100.00
2018-12-16T06:23:55.356Z,100.00
2018-12-16T06:26:28.454Z,100.00
2018-12-16T06:29:04.913Z,100.00
2018-12-16T06:31:41.372Z,100.00
2018-12-16T06:34:17.703Z,100.00
2018-12-16T06:36:54.858Z,100.00
2018-12-16T06:39:30.783Z,100.00
2018-12-16T06:42:06.901Z,100.00
2018-12-16T06:44:57.711Z,100.00
2018-12-16T06:47:38.501Z,100.00
2018-12-16T06:50:15.014Z,100.00
2018-12-16T06:52:56.935Z,100.00
2018-12-16T06:55:43.230Z,100.00
2018-12-16T06:58:31.828Z,100.00
2018-12-16T07:01:25.058Z,100.00
2018-12-16T07:04:01.690Z,100.00
2018-12-16T07:06:40.133Z,100.00
2018-12-16T07:11:59.475Z,100.00
2018-12-16T07:14:35.422Z,100.00
2018-12-16T07:17:11.559Z,100.00
2018-12-16T07:21:11.885Z,100.00
2018-12-16T07:23:47.946Z,100.00
2018-12-16T07:26:24.161Z,100.00
2018-12-16T07:29:00.273Z,100.00
2018-12-16T07:31:36.275Z,100.00
2018-12-16T07:34:12.425Z,100.00
2018-12-16T07:36:48.518Z,100.00
2018-12-16T07:39:24.846Z,100.00
2018-12-16T07:42:01.193Z,100.00
2018-12-16T07:44:37.275Z,100.00
2018-12-16T07:47:15.410Z,100.00
2018-12-16T07:49:51.356Z,100.00
2018-12-16T07:52:27.625Z,100.00
2018-12-16T07:55:04.179Z,100.00
2018-12-16T07:57:40.356Z,100.00
2018-12-16T08:00:17.258Z,100.00
2018-12-16T08:02:53.388Z,100.00
2018-12-16T08:05:29.435Z,100.00
2018-12-16T08:08:09.475Z,100.00
2018-12-16T08:10:45.519Z,100.00
2018-12-16T08:13:21.533Z,100.00
2018-12-16T08:15:58.157Z,100.00
2018-12-16T08:18:34.334Z,100.00
2018-12-16T08:21:10.715Z,100.00
2018-12-16T08:23:46.831Z,100.00
2018-12-16T08:26:23.061Z,100.00
2018-12-16T08:29:00.033Z,100.00
2018-12-16T08:31:37.545Z,100.00
2018-12-16T08:34:15.369Z,100.00
2018-12-16T08:36:51.864Z,100.00
2018-12-16T08:39:28.414Z,100.00
2018-12-16T08:42:04.731Z,100.00
2018-12-16T08:44:42.187Z,100.00
2018-12-16T08:47:18.656Z,100.00
2018-12-16T08:49:54.694Z,100.00
2018-12-16T08:52:30.779Z,100.00
2018-12-16T08:55:07.323Z,100.00
2018-12-16T08:57:43.509Z,100.00
2018-12-16T09:00:19.529Z,100.00
2018-12-16T09:02:55.697Z,100.00
2018-12-16T09:05:31.670Z,100.00
2018-12-16T09:08:07.753Z,100.00
2018-12-16T09:10:43.794Z,100.00
2018-12-16T09:13:19.897Z,100.00
2018-12-16T09:15:55.890Z,100.00
2018-12-16T09:18:32.063Z,100.00
2018-12-16T09:21:07.998Z,100.00
2018-12-16T09:23:44.122Z,100.00
2018-12-16T09:26:20.451Z,100.00
2018-12-16T09:28:56.588Z,100.00
2018-12-16T09:31:32.878Z,100.00
2018-12-16T09:34:09.365Z,100.00
2018-12-16T09:36:45.619Z,100.00
2018-12-16T09:39:22.277Z,100.00
2018-12-16T09:41:58.228Z,100.00
2018-12-16T09:44:35.876Z,100.00
2018-12-16T09:47:18.011Z,100.00
2018-12-16T09:49:53.957Z,100.00
2018-12-16T09:52:29.970Z,100.00
2018-12-16T09:55:06.959Z,100.00
2018-12-16T09:57:43.011Z,100.00
2018-12-16T10:00:19.097Z,100.00
2018-12-16T10:02:55.157Z,100.00
2018-12-16T10:05:31.311Z,100.00
2018-12-16T10:08:07.586Z,100.00
2018-12-16T10:10:44.708Z,100.00
2018-12-16T10:13:20.945Z,100.00
2018-12-16T10:15:57.045Z,100.00
2018-12-16T10:18:33.091Z,100.00
2018-12-16T10:21:09.560Z,100.00
2018-12-16T10:23:45.428Z,100.00
2018-12-16T10:26:21.545Z,100.00
2018-12-16T10:28:57.554Z,100.00
2018-12-16T10:31:33.682Z,100.00
2018-12-16T10:34:09.675Z,100.00
2018-12-16T10:36:45.890Z,100.00
2018-12-16T10:39:21.852Z,100.00
2018-12-16T10:41:57.975Z,100.00
2018-12-16T10:44:55.595Z,100.00
2018-12-16T10:47:32.941Z,100.00
2018-12-16T10:50:09.344Z,100.00
2018-12-16T10:52:45.676Z,100.00
2018-12-16T10:55:21.830Z,100.00
2018-12-16T10:57:57.943Z,100.00
2018-12-16T11:00:40.678Z,100.00
2018-12-16T11:03:17.099Z,100.00
2018-12-16T11:05:53.138Z,100.00
2018-12-16T11:08:30.087Z,100.00
2018-12-16T11:11:06.182Z,100.00
2018-12-16T11:13:42.280Z,100.00
2018-12-16T11:16:18.415Z,100.00
2018-12-16T11:18:54.455Z,100.00
2018-12-16T11:21:30.737Z,100.00
2018-12-16T11:24:06.831Z,100.00
2018-12-16T11:26:42.863Z,100.00
2018-12-16T11:29:18.995Z,100.00
2018-12-16T11:31:54.975Z,100.00
2018-12-16T11:34:38.729Z,100.00
2018-12-16T11:37:14.785Z,100.00
2018-12-16T11:39:57.456Z,100.00
2018-12-16T11:42:34.476Z,100.00
2018-12-16T11:45:10.681Z,100.00
2018-12-16T11:47:47.394Z,100.00
2018-12-16T11:50:23.763Z,100.00
2018-12-16T11:52:59.861Z,100.00
2018-12-16T11:55:36.706Z,100.00
2018-12-16T11:58:12.768Z,100.00
2018-12-16T12:00:48.912Z,100.00
2018-12-16T12:03:24.892Z,100.00
2018-12-16T12:06:00.682Z,100.00
2018-12-16T12:08:36.703Z,100.00
2018-12-16T12:11:12.988Z,100.00
2018-12-16T12:13:49.121Z,100.00
2018-12-16T12:16:24.927Z,100.00
2018-12-16T12:19:02.107Z,100.00
2018-12-16T12:21:38.299Z,100.00
2018-12-16T12:24:14.303Z,100.00
2018-12-16T12:26:50.428Z,100.00
2018-12-16T12:29:26.497Z,100.00
2018-12-16T12:32:02.603Z,100.00
2018-12-16T12:34:38.572Z,100.00
2018-12-16T12:37:14.627Z,100.00
2018-12-16T12:39:50.680Z,100.00
2018-12-16T12:42:26.838Z,100.00
2018-12-16T12:45:02.863Z,100.00
2018-12-16T12:47:38.914Z,100.00
2018-12-16T12:50:14.928Z,100.00
2018-12-16T12:52:51.050Z,100.00
2018-12-16T12:55:27.204Z,100.00
2018-12-16T12:58:04.181Z,100.00
2018-12-16T13:00:40.079Z,100.00
2018-12-16T13:03:16.210Z,100.00
2018-12-16T13:05:52.195Z,100.00
2018-12-16T13:08:28.307Z,100.00
2018-12-16T13:11:04.309Z,100.00
2018-12-16T13:13:41.087Z,100.00
2018-12-16T13:16:17.374Z,100.00
2018-12-16T13:20:17.834Z,100.00
2018-12-16T13:22:53.973Z,100.00
2018-12-16T13:25:41.036Z,100.00
2018-12-16T13:28:17.268Z,100.00
2018-12-16T13:30:53.579Z,100.00
2018-12-16T13:33:29.569Z,100.00
2018-12-16T13:36:08.736Z,100.00
2018-12-16T13:38:44.831Z,100.00
2018-12-16T13:41:20.891Z,100.00
2018-12-16T13:43:56.911Z,100.00
2018-12-16T13:46:37.131Z,100.00
2018-12-16T13:49:13.319Z,100.00
2018-12-16T13:51:49.376Z,100.00
2018-12-16T13:54:25.482Z,100.00
2018-12-16T13:57:02.176Z,100.00
2018-12-16T13:59:38.480Z,100.00
2018-12-16T14:02:14.297Z,100.00
2018-12-16T14:04:50.295Z,100.00
2018-12-16T14:07:26.385Z,100.00
2018-12-16T14:10:02.405Z,100.00
2018-12-16T14:12:38.217Z,100.00
2018-12-16T14:15:16.985Z,100.00
2018-12-16T14:17:54.234Z,100.00
2018-12-16T14:20:30.339Z,100.00
2018-12-16T14:23:06.579Z,100.00
2018-12-16T14:25:47.997Z,100.00
2018-12-16T14:28:21.026Z,100.00
2018-12-16T14:30:57.039Z,100.00
2018-12-16T14:33:33.188Z,100.00
2018-12-16T14:36:09.146Z,100.00
2018-12-16T14:38:45.290Z,99.61
2018-12-16T14:42:45.593Z,99.24
2018-12-16T14:45:21.402Z,99.23
2018-12-16T14:47:57.580Z,98.47
2018-12-16T14:50:33.763Z,100.00
2018-12-16T14:53:09.990Z,100.00
2018-12-16T14:55:45.766Z,100.00
2018-12-16T14:58:21.801Z,100.00
2018-12-16T15:00:58.008Z,100.00
2018-12-16T15:03:34.028Z,99.82
2018-12-16T15:06:10.082Z,99.29
2018-12-16T15:08:46.419Z,98.60
2018-12-16T15:11:29.830Z,98.61
2018-12-16T15:14:06.961Z,99.11
2018-12-16T15:16:43.037Z,99.54
2018-12-16T15:19:19.243Z,100.00
2018-12-16T15:21:55.380Z,100.00
2018-12-16T15:24:31.318Z,100.00
2018-12-16T15:27:07.418Z,98.51
2018-12-16T15:29:44.356Z,97.00
2018-12-16T15:32:20.499Z,97.11
2018-12-16T15:34:56.818Z,97.28
2018-12-16T15:37:33.294Z,96.68
2018-12-16T15:40:09.557Z,96.19
2018-12-16T15:42:45.662Z,96.44
2018-12-16T15:45:27.667Z,96.14
2018-12-16T15:48:03.928Z,97.85
2018-12-16T15:50:39.947Z,98.42
2018-12-16T15:53:16.083Z,97.62
2018-12-16T15:58:40.371Z,94.19
2018-12-16T16:01:17.720Z,94.39
2018-12-16T16:03:53.783Z,94.56
2018-12-16T16:06:29.807Z,93.71
2018-12-16T16:09:08.032Z,94.26
2018-12-16T16:11:44.061Z,92.72
2018-12-16T16:14:20.142Z,93.59
2018-12-16T16:17:00.181Z,93.00
2018-12-16T16:19:36.298Z,93.43
2018-12-16T16:22:12.298Z,94.97
2018-12-16T16:24:48.475Z,94.87
2018-12-16T16:27:24.415Z,96.47
2018-12-16T16:30:00.503Z,95.39
2018-12-16T16:32:36.510Z,95.78
2018-12-16T16:35:12.666Z,96.53
2018-12-16T16:37:49.447Z,95.89
2018-12-16T16:40:26.234Z,95.53
2018-12-16T16:43:02.539Z,95.59
2018-12-16T16:45:38.734Z,96.70
2018-12-16T16:48:14.755Z,94.93
2018-12-16T16:50:50.837Z,95.97
2018-12-16T16:53:26.865Z,95.30
2018-12-16T16:56:03.369Z,94.55
2018-12-16T16:58:39.293Z,94.71
2018-12-16T17:01:15.410Z,95.45
2018-12-16T17:03:51.391Z,96.01
2018-12-16T17:06:27.551Z,95.31
2018-12-16T17:09:05.287Z,95.04
2018-12-16T17:11:41.194Z,96.32
2018-12-16T17:14:17.563Z,96.13
2018-12-16T17:16:53.985Z,95.13
2018-12-16T17:19:30.074Z,93.23
2018-12-16T17:22:06.675Z,92.47
2018-12-16T17:24:42.684Z,92.95
2018-12-16T17:27:19.319Z,92.28
2018-12-16T17:37:05.134Z,93.30
2018-12-16T17:39:36.361Z,93.59
2018-12-16T17:42:07.577Z,93.16
2018-12-16T17:44:38.634Z,94.07
2018-12-16T17:47:09.942Z,94.47
2018-12-16T17:49:41.860Z,95.21
2018-12-16T17:52:13.155Z,94.61
2018-12-16T17:54:44.802Z,94.17
2018-12-16T17:57:16.291Z,94.59
2018-12-16T17:59:47.485Z,93.96
2018-12-16T18:02:18.555Z,95.85
2018-12-16T18:04:49.638Z,95.48
2018-12-16T18:07:20.820Z,96.00
2018-12-16T18:09:51.969Z,94.73
2018-12-16T18:12:23.118Z,97.27
2018-12-16T18:14:54.186Z,92.51
2018-12-16T18:17:25.423Z,93.35
2018-12-16T18:19:56.855Z,94.37
2018-12-16T18:22:27.991Z,94.55
2018-12-16T18:24:59.086Z,94.41
2018-12-16T18:27:29.991Z,93.92
2018-12-16T18:30:00.910Z,93.97
2018-12-16T18:32:31.964Z,94.82
2018-12-16T18:35:03.238Z,93.69
2018-12-16T18:37:35.715Z,92.87
2018-12-16T18:40:07.886Z,93.26
2018-12-16T18:42:41.503Z,94.01
2018-12-16T18:45:18.078Z,94.88
2018-12-16T18:47:58.818Z,93.17
2018-12-16T18:50:29.719Z,94.41
2018-12-16T18:53:00.811Z,93.81
2018-12-16T18:55:31.904Z,93.01
2018-12-16T18:58:03.383Z,93.71
2018-12-16T19:00:34.531Z,94.46
2018-12-16T19:03:05.777Z,93.97
2018-12-16T19:05:36.761Z,93.80
2018-12-16T19:08:07.967Z,93.79
2018-12-16T19:10:39.213Z,92.49
2018-12-16T19:13:10.291Z,92.21
2018-12-16T19:15:41.362Z,90.94
2018-12-16T19:18:12.771Z,90.61
2018-12-16T19:20:44.043Z,89.57
2018-12-16T19:23:15.164Z,89.15
2018-12-16T19:25:46.247Z,89.26
2018-12-16T19:28:17.420Z,88.87
2018-12-16T19:30:48.579Z,89.54
2018-12-16T19:33:19.719Z,88.89
2018-12-16T19:35:50.828Z,88.54
2018-12-16T19:38:22.001Z,88.04
2018-12-16T19:41:10.246Z,86.99
2018-12-16T19:43:45.221Z,87.04
2018-12-16T19:46:16.322Z,86.82
2018-12-16T19:48:47.487Z,86.76
2018-12-16T19:51:18.572Z,86.67
2018-12-16T19:53:49.833Z,86.13
2018-12-16T19:56:21.149Z,87.92
2018-12-16T19:58:52.861Z,85.27
2018-12-16T20:01:24.048Z,84.61
2018-12-16T20:04:14.286Z,86.20
2018-12-16T20:06:47.851Z,86.25
2018-12-16T20:09:20.367Z,86.47
2018-12-16T20:11:51.385Z,87.21
2018-12-16T20:14:22.608Z,86.70
2018-12-16T20:16:53.687Z,86.52
2018-12-16T20:19:25.003Z,87.27
2018-12-16T20:21:57.698Z,87.72
2018-12-16T20:24:29.055Z,86.70
2018-12-16T20:27:00.103Z,86.75
2018-12-16T20:29:31.333Z,86.63
2018-12-16T20:32:02.560Z,86.39
2018-12-16T20:34:33.894Z,86.75
2018-12-16T20:37:05.465Z,86.78
2018-12-16T20:39:36.546Z,86.07
2018-12-16T20:42:07.648Z,86.01
2018-12-16T20:44:39.679Z,86.93
2018-12-16T20:47:10.541Z,87.06
2018-12-16T20:49:41.996Z,85.79
2018-12-16T20:52:13.092Z,84.90
2018-12-16T20:54:44.266Z,85.62
2018-12-16T20:57:18.856Z,85.47
2018-12-16T20:59:48.569Z,86.04
2018-12-16T21:02:19.534Z,86.52
2018-12-16T21:04:51.134Z,86.12
2018-12-16T21:07:22.449Z,87.18
2018-12-16T21:09:53.377Z,87.34
2018-12-16T21:12:29.565Z,88.96
2018-12-16T21:15:05.716Z,90.03
2018-12-16T21:18:44.749Z,91.01
2018-12-16T21:21:16.339Z,92.48
2018-12-16T21:23:49.002Z,93.86
2018-12-16T21:26:20.266Z,94.97
2018-12-16T21:28:51.759Z,94.62
2018-12-16T21:31:23.916Z,92.91
2018-12-16T21:33:54.983Z,91.88
2018-12-16T21:36:26.841Z,92.12
2018-12-16T21:38:57.965Z,93.83
2018-12-16T21:41:31.709Z,92.52
2018-12-16T21:44:02.795Z,92.45
2018-12-16T21:46:33.959Z,92.53
2018-12-16T21:49:05.980Z,92.23
2018-12-16T21:51:38.482Z,93.50
2018-12-16T21:54:09.894Z,92.13
2018-12-16T21:56:41.349Z,94.34
2018-12-16T21:59:13.069Z,94.21
2018-12-16T22:01:44.725Z,92.93
2018-12-16T22:04:15.887Z,91.79
2018-12-16T22:06:51.632Z,90.78
2018-12-16T22:09:22.548Z,91.00
2018-12-16T22:11:53.891Z,92.09
2018-12-16T22:14:27.661Z,92.59
2018-12-16T22:17:03.196Z,92.97
2018-12-16T22:19:34.921Z,91.35
2018-12-16T22:22:07.124Z,92.46
2018-12-16T22:24:39.711Z,91.00
2018-12-16T22:27:12.523Z,90.93
2018-12-16T22:29:45.750Z,93.05
2018-12-16T22:32:17.772Z,92.34
2018-12-16T22:34:51.177Z,92.76
2018-12-16T22:37:25.093Z,93.26
2018-12-16T22:39:57.190Z,92.90
2018-12-16T22:42:29.832Z,92.12
2018-12-16T22:45:02.035Z,93.68
2018-12-16T22:47:33.583Z,94.45
2018-12-16T22:50:06.513Z,92.53
2018-12-16T22:52:38.740Z,92.39
2018-12-16T22:55:10.793Z,93.23
2018-12-16T22:57:47.039Z,93.35
2018-12-16T23:00:20.167Z,92.52
2018-12-16T23:02:52.008Z,93.57
2018-12-16T23:05:24.710Z,93.50
2018-12-16T23:07:56.891Z,93.87
2018-12-16T23:10:30.156Z,93.82
2018-12-16T23:13:05.624Z,93.42
2018-12-16T23:15:37.663Z,94.25
2018-12-16T23:18:08.889Z,94.62
2018-12-16T23:20:40.085Z,95.03
2018-12-16T23:23:11.289Z,94.40
2018-12-16T23:25:42.431Z,94.70
2018-12-16T23:28:13.865Z,94.16
2018-12-16T23:30:45.901Z,94.18
2018-12-16T23:33:17.687Z,94.71
2018-12-16T23:35:49.064Z,95.45
2018-12-16T23:38:20.228Z,94.24
2018-12-16T23:40:51.330Z,94.11
2018-12-16T23:43:22.504Z,93.91
2018-12-16T23:45:59.327Z,94.06
2018-12-16T23:48:30.236Z,94.09
2018-12-16T23:51:01.088Z,93.90
2018-12-16T23:53:31.999Z,93.20
2018-12-16T23:56:03.122Z,93.86
2018-12-16T23:58:34.302Z,94.05
